Time;durP1;ratioP1;P1;durP2;ratioP2;P2;SDS_P1;SDS_P2;PMS_P1;PMS_P2;Temp;Humidity;BMP_temperature;BMP_pressure;BME280_temperature;BME280_humidity;BME280_pressure;Samples;Min_cycle;Max_cycle;Signal;HPM_P1;HPM_P2
2021/12/05 07:42:06;;;;;;;10.63;3.13;;;;;;;1.91;82.00;96931.13;4872832;29;20185;-51
2021/12/05 07:44:31;;;;;;;8.63;2.20;;;;;;;1.62;83.12;96919.78;4866662;29;20496;-49
2021/12/05 07:46:57;;;;;;;11.25;3.33;;;;;;;1.99;81.90;96921.19;4855246;29;20040;-52
2021/12/05 07:49:22;;;;;;;17.10;3.80;;;;;;;2.16;81.24;96929.81;4857406;29;20028;-51
2021/12/05 07:51:49;;;;;;;12.45;3.40;;;;;;;2.14;81.45;96933.31;4852996;29;20112;-53
2021/12/05 08:15:59;;;;;;;10.13;2.80;;;;;;;1.80;82.13;96954.16;4852966;29;20040;-51
2021/12/05 08:18:25;;;;;;;9.98;2.78;;;;;;;1.89;82.83;96948.47;4852087;29;20199;-49
2021/12/05 08:20:50;;;;;;;9.68;3.25;;;;;;;1.78;82.98;96958.56;4852286;29;20090;-52
2021/12/05 08:23:16;;;;;;;9.20;3.13;;;;;;;1.87;82.79;96945.16;4854234;29;20044;-52
2021/12/05 08:25:45;;;;;;;8.07;2.60;;;;;;;1.81;82.98;96958.41;4851572;29;20069;-53
2021/12/05 08:30:44;;;;;;;6.82;2.58;;;;;;;1.83;82.05;96946.25;4854877;29;20067;-50
2021/12/05 08:34:03;;;;;;;6.70;2.75;;;;;;;2.08;81.56;96954.34;4840619;29;20026;-53
2021/12/05 08:36:36;;;;;;;8.18;2.67;;;;;;;2.01;81.50;96949.59;4853718;29;20084;-52
2021/12/05 08:44:11;;;;;;;9.30;2.92;;;;;;;2.10;83.56;96941.34;4855820;29;20034;-52
2021/12/05 10:13:15;;;;;;;8.38;2.80;;;;;;;3.65;75.61;96904.69;4869926;29;20253;-54
2021/12/05 10:16:01;;;;;;;7.15;2.80;;;;;;;3.75;76.28;96910.97;4870241;29;20049;-54
2021/12/05 10:37:20;;;;;;;6.22;2.03;;;;;;;3.71;73.71;96909.47;4870013;29;20189;-53
2021/12/05 10:39:46;;;;;;;7.50;2.00;;;;;;;3.80;73.32;96908.09;4871113;29;20142;-51
2021/12/05 10:42:37;;;;;;;7.28;2.08;;;;;;;3.65;73.84;96914.22;4858215;29;20482;-51
2021/12/05 10:45:07;;;;;;;7.38;1.90;;;;;;;3.67;74.13;96882.06;4872669;29;20052;-54
2021/12/05 10:47:40;;;;;;;9.00;2.25;;;;;;;3.94;73.75;96902.03;4856133;29;20038;-54
2021/12/05 10:50:42;;;;;;;7.40;2.33;;;;;;;4.23;72.24;96911.44;4856359;29;20479;-51
2021/12/05 10:53:27;;;;;;;6.27;2.00;;;;;;;4.05;71.35;96908.22;4857096;29;20040;-52
2021/12/05 10:56:14;;;;;;;7.35;2.30;;;;;;;4.11;71.36;96907.00;4858222;29;20415;-52
2021/12/05 10:58:42;;;;;;;4.68;1.67;;;;;;;4.18;70.56;96912.66;4855603;29;20053;-53
2021/12/05 11:01:16;;;;;;;7.00;2.28;;;;;;;3.97;72.15;96910.47;4857010;29;20170;-53
2021/12/05 11:03:42;;;;;;;8.35;2.13;;;;;;;4.01;71.98;96914.53;4856877;29;20032;-52
2021/12/05 11:06:22;;;;;;;8.85;2.13;;;;;;;3.88;73.15;96911.03;4855274;29;20029;-53
2021/12/05 11:08:52;;;;;;;6.30;1.70;;;;;;;4.08;71.88;96919.34;4856996;29;20061;-54
2021/12/05 11:11:17;;;;;;;5.93;2.20;;;;;;;3.96;73.04;96907.97;4856050;29;20044;-53
2021/12/05 11:13:45;;;;;;;7.57;2.50;;;;;;;4.36;71.37;96915.81;4856736;29;20034;-54
2021/12/05 11:16:30;;;;;;;6.18;2.00;;;;;;;4.41;69.77;96924.16;4857236;29;20038;-53
2021/12/05 11:18:55;;;;;;;7.63;2.10;;;;;;;4.55;69.66;96920.69;4856705;29;20062;-53
2021/12/05 11:21:34;;;;;;;6.82;2.17;;;;;;;4.64;70.60;96922.66;4856839;29;20455;-53
2021/12/05 11:24:20;;;;;;;6.43;2.25;;;;;;;4.36;71.29;96921.03;4838224;29;20022;-54
2021/12/05 11:27:06;;;;;;;6.03;2.03;;;;;;;4.63;71.11;96924.44;4855497;29;20052;-53
2021/12/05 11:29:49;;;;;;;7.35;2.22;;;;;;;5.01;70.46;96923.69;4874408;29;20089;-53
2021/12/05 11:32:21;;;;;;;8.25;2.90;;;;;;;4.95;71.04;96924.09;4874291;29;20034;-56
2021/12/05 11:34:47;;;;;;;6.82;2.08;;;;;;;4.97;70.00;96923.06;4866388;29;20463;-53
2021/12/05 11:37:12;;;;;;;7.70;2.42;;;;;;;5.00;69.23;96920.25;4856647;29;20058;-53
2021/12/05 11:39:38;;;;;;;8.05;2.20;;;;;;;5.17;67.94;96924.34;4856457;29;20085;-52
2021/12/05 11:42:18;;;;;;;6.35;2.00;;;;;;;5.29;67.61;96917.47;4856752;29;20037;-52
2021/12/05 11:44:46;;;;;;;6.95;1.75;;;;;;;5.14;67.10;96921.94;4857920;29;20117;-52
2021/12/05 11:47:13;;;;;;;4.63;1.83;;;;;;;5.29;67.00;96921.84;4856761;29;20032;-56
2021/12/05 11:49:39;;;;;;;6.70;1.88;;;;;;;5.16;65.74;96927.88;4871122;29;20030;-54
2021/12/05 11:52:05;;;;;;;7.60;1.73;;;;;;;5.23;66.00;96907.50;4856701;29;20166;-54
2021/12/05 11:54:46;;;;;;;6.57;1.90;;;;;;;4.98;66.81;96929.91;4856219;29;20113;-53
2021/12/05 11:57:15;;;;;;;5.50;1.80;;;;;;;4.74;66.65;96901.19;4855345;29;20030;-54
2021/12/05 11:59:50;;;;;;;6.28;1.70;;;;;;;5.08;65.56;96909.34;4855826;29;20459;-53
2021/12/05 12:02:18;;;;;;;8.55;2.05;;;;;;;5.04;66.97;96917.47;4857940;29;20591;-53
2021/12/05 12:05:05;;;;;;;5.97;1.83;;;;;;;5.22;67.63;96911.00;4856287;29;20037;-52
2021/12/05 12:07:39;;;;;;;8.38;2.08;;;;;;;5.36;63.86;96907.47;4856868;29;20026;-52
2021/12/05 12:10:13;;;;;;;7.68;1.60;;;;;;;5.38;64.53;96901.25;4857545;29;20029;-53
2021/12/05 12:12:39;;;;;;;7.00;1.73;;;;;;;5.21;65.13;96915.38;4875525;29;20085;-52
2021/12/05 12:15:06;;;;;;;7.20;1.63;;;;;;;5.14;67.68;96921.09;4875504;29;20166;-54
2021/12/05 12:17:31;;;;;;;5.93;1.60;;;;;;;5.18;65.74;96914.75;4873455;29;20114;-52
2021/12/05 12:19:57;;;;;;;8.68;1.95;;;;;;;5.05;65.81;96924.31;4875692;29;20030;-52
2021/12/05 12:22:23;;;;;;;5.28;1.75;;;;;;;4.98;65.58;96919.50;4862644;29;20059;-51
2021/12/05 12:24:50;;;;;;;5.55;1.80;;;;;;;5.05;65.30;96906.94;4870195;29;20030;-53
2021/12/05 12:27:16;;;;;;;7.30;2.75;;;;;;;5.12;65.62;96920.38;4855532;29;20026;-54
2021/12/05 12:29:41;;;;;;;5.53;1.77;;;;;;;5.10;65.38;96924.84;4856811;29;20058;-55
2021/12/05 12:32:12;;;;;;;5.38;1.60;;;;;;;4.93;65.67;96916.41;4854851;29;20512;-52
2021/12/05 12:34:40;;;;;;;6.13;1.50;;;;;;;4.90;65.27;96915.78;4873541;29;20036;-53
2021/12/05 12:37:06;;;;;;;5.45;1.60;;;;;;;4.67;67.54;96923.28;4859005;29;20058;-53
2021/12/05 12:39:35;;;;;;;5.45;1.80;;;;;;;4.34;66.86;96886.56;4855552;29;20034;-54
2021/12/05 12:42:19;;;;;;;9.18;2.00;;;;;;;4.66;67.63;96928.59;4857471;29;20030;-53
2021/12/05 12:45:06;;;;;;;7.35;2.03;;;;;;;4.94;67.55;96928.44;4854551;29;20058;-54
2021/12/05 12:47:31;;;;;;;5.35;1.88;;;;;;;4.99;65.99;96931.59;4855221;29;20562;-51
2021/12/05 12:49:57;;;;;;;8.00;2.03;;;;;;;4.93;66.90;96926.78;4855540;29;20041;-53
2021/12/05 12:52:23;;;;;;;10.18;1.90;;;;;;;4.64;66.71;96917.47;4854796;29;20022;-53
2021/12/05 12:54:55;;;;;;;9.77;2.08;;;;;;;4.79;67.51;96919.09;4856639;29;20486;-54
2021/12/05 12:57:26;;;;;;;7.15;1.80;;;;;;;4.83;66.71;96883.34;4855238;29;20102;-50
2021/12/05 13:00:00;;;;;;;7.32;1.92;;;;;;;5.36;65.93;96926.50;4855443;29;20061;-54
2021/12/05 13:02:55;;;;;;;6.93;1.73;;;;;;;5.51;64.68;96910.81;4855589;29;20097;-53
2021/12/05 13:10:51;;;;;;;5.70;1.58;;;;;;;5.65;63.26;96915.91;4855190;29;20120;-52
2021/12/05 13:13:22;;;;;;;7.28;1.92;;;;;;;5.60;63.12;96925.78;4856148;29;20085;-55
2021/12/05 13:15:52;;;;;;;9.38;2.30;;;;;;;5.53;64.12;96929.72;4839905;29;20093;-52
2021/12/05 13:18:29;;;;;;;8.25;2.20;;;;;;;5.61;62.78;96935.22;4836206;29;20035;-51
2021/12/05 13:21:04;;;;;;;6.68;1.73;;;;;;;5.47;64.04;96931.84;4836905;29;20026;-53
2021/12/05 13:23:38;;;;;;;4.53;1.50;;;;;;;5.39;62.72;96936.69;4843295;29;20050;-52
2021/12/05 13:26:03;;;;;;;5.72;1.85;;;;;;;5.39;63.11;96936.69;4851933;29;20060;-52
2021/12/05 13:28:36;;;;;;;5.25;1.63;;;;;;;5.31;64.67;96936.41;4851550;29;20039;-54
2021/12/05 13:31:27;;;;;;;10.02;2.10;;;;;;;5.31;64.41;96939.00;4849543;29;20038;-53
2021/12/05 13:34:20;;;;;;;10.75;1.90;;;;;;;5.10;65.21;96935.25;4847637;29;20081;-54
2021/12/05 13:36:53;;;;;;;5.45;1.42;;;;;;;5.05;65.59;96942.50;4856124;29;20034;-53
2021/12/05 13:39:27;;;;;;;8.73;1.80;;;;;;;5.12;66.17;96941.97;4846969;29;20021;-51
2021/12/05 13:42:06;;;;;;;7.13;1.67;;;;;;;5.15;66.38;96940.97;4846161;29;20037;-52
2021/12/05 13:44:59;;;;;;;8.43;1.95;;;;;;;5.18;67.55;96948.56;4836190;29;20407;-53
2021/12/05 13:47:33;;;;;;;5.88;1.27;;;;;;;5.23;67.26;96949.09;4849140;29;20036;-53
2021/12/05 13:50:18;;;;;;;6.78;1.75;;;;;;;5.14;67.20;96949.69;4845521;29;20064;-51
2021/12/05 13:52:45;;;;;;;7.78;2.78;;;;;;;4.97;67.35;96949.03;4847136;29;20036;-54
2021/12/05 13:55:29;;;;;;;8.82;1.88;;;;;;;4.99;67.06;96948.97;4847607;29;20034;-54
2021/12/05 13:58:16;;;;;;;8.18;2.03;;;;;;;4.89;66.89;96945.28;4848321;29;20494;-53
2021/12/05 14:01:07;;;;;;;6.07;1.70;;;;;;;4.86;66.10;96943.72;4848546;29;20036;-53
2021/12/05 14:03:57;;;;;;;6.85;2.13;;;;;;;4.52;67.12;96956.28;4848539;29;20032;-50
2021/12/05 14:06:43;;;;;;;7.20;2.20;;;;;;;4.70;67.27;96958.63;4848778;29;20026;-54
2021/12/05 14:09:24;;;;;;;5.45;1.60;;;;;;;4.65;67.80;96958.13;4849199;29;20030;-50
2021/12/05 14:11:52;;;;;;;6.13;2.03;;;;;;;4.49;68.91;96953.88;4844590;29;20034;-50
2021/12/05 14:14:24;;;;;;;6.40;1.80;;;;;;;4.68;68.61;96958.75;4846099;29;20025;-53
2021/12/05 14:16:50;;;;;;;8.43;2.20;;;;;;;4.71;67.67;96960.28;4849216;29;20033;-51
2021/12/05 14:19:17;;;;;;;7.80;2.00;;;;;;;4.52;66.59;96963.25;4859432;29;20090;-53
2021/12/05 14:21:45;;;;;;;6.65;2.30;;;;;;;4.48;67.86;96965.22;4849703;29;20049;-51
2021/12/05 14:24:10;;;;;;;9.25;2.58;;;;;;;4.49;68.45;96960.84;4844989;29;20018;-52
2021/12/05 14:26:39;;;;;;;8.20;2.13;;;;;;;4.52;69.48;96968.44;4854473;29;20033;-54
2021/12/05 14:29:11;;;;;;;7.25;3.00;;;;;;;4.61;69.96;96961.81;4855198;29;20090;-54
2021/12/05 14:31:49;;;;;;;8.88;2.88;;;;;;;4.53;70.21;96965.75;4852796;29;20078;-49
2021/12/05 14:34:14;;;;;;;10.43;4.40;;;;;;;4.57;69.87;96975.94;4851856;29;20591;-49
2021/12/05 14:36:44;;;;;;;13.65;6.72;;;;;;;4.60;69.19;96978.34;4853686;29;20030;-53
2021/12/05 14:39:19;;;;;;;12.30;4.97;;;;;;;4.52;70.60;96979.66;4851688;29;20034;-54
2021/12/05 14:41:46;;;;;;;12.75;6.15;;;;;;;4.65;70.10;96979.72;4850933;29;20415;-54
2021/12/05 14:44:13;;;;;;;15.60;7.03;;;;;;;4.53;70.47;96976.13;4851420;29;20029;-51
2021/12/05 14:46:56;;;;;;;14.25;6.78;;;;;;;4.52;70.64;96989.22;4851540;29;20029;-53
2021/12/05 14:49:23;;;;;;;9.60;4.03;;;;;;;4.58;68.87;96991.44;4850686;29;20110;-53
2021/12/05 14:51:49;;;;;;;10.20;3.83;;;;;;;4.59;69.79;96992.25;4853301;29;20026;-52
2021/12/05 14:54:24;;;;;;;14.00;7.57;;;;;;;4.55;70.46;96999.41;4852837;29;20530;-55
2021/12/05 14:56:49;;;;;;;12.90;4.32;;;;;;;4.59;71.21;96993.09;4852607;29;20408;-51
2021/12/05 14:59:15;;;;;;;12.05;4.55;;;;;;;4.58;72.13;96998.41;4852374;29;20245;-52
2021/12/05 15:01:42;;;;;;;10.77;4.97;;;;;;;4.45;72.57;96995.72;4853329;29;20038;-53
2021/12/05 15:04:09;;;;;;;12.80;5.15;;;;;;;4.43;72.72;96993.22;4856487;29;20037;-53
2021/12/05 15:06:43;;;;;;;12.25;5.00;;;;;;;4.46;73.35;96995.63;4856423;29;20030;-53
2021/12/05 15:09:24;;;;;;;10.77;4.65;;;;;;;4.23;73.98;97011.81;4839371;29;20030;-53
2021/12/05 15:11:57;;;;;;;11.02;3.90;;;;;;;4.42;73.35;97008.91;4856003;29;20029;-50
2021/12/05 15:14:22;;;;;;;9.63;3.47;;;;;;;4.30;74.02;97015.69;4854330;29;20034;-53
2021/12/05 15:17:17;;;;;;;10.57;4.20;;;;;;;4.36;73.83;97010.13;4854630;29;20046;-53
2021/12/05 15:19:49;;;;;;;10.48;4.40;;;;;;;4.30;73.97;97010.50;4854754;29;20044;-53
2021/12/05 15:22:15;;;;;;;;;;;;;;;4.28;74.45;97017.56;4855019;29;20071;-54
2021/12/05 15:24:41;;;;;;;14.05;4.45;;;;;;;4.12;75.50;97022.00;4853985;29;19965;-51
2021/12/05 15:27:13;;;;;;;14.32;6.15;;;;;;;4.07;75.18;97018.88;4854233;29;20029;-54
2021/12/05 15:29:45;;;;;;;16.63;6.13;;;;;;;4.05;75.97;97027.56;4852063;29;20082;-51
2021/12/05 15:32:18;;;;;;;15.75;6.97;;;;;;;3.98;75.85;97010.72;4852352;29;20078;-53
2021/12/05 15:34:43;;;;;;;17.05;6.65;;;;;;;3.87;76.45;97023.50;4851148;29;20070;-52
2021/12/05 15:37:10;;;;;;;17.05;7.43;;;;;;;3.90;76.27;97028.53;4852411;29;20030;-53
2021/12/05 15:39:37;;;;;;;28.83;10.43;;;;;;;3.89;76.48;97020.81;4853535;29;20101;-52
2021/12/05 15:42:12;;;;;;;19.88;8.10;;;;;;;4.08;75.99;97015.34;4851932;29;20025;-51
2021/12/05 15:44:39;;;;;;;15.23;6.18;;;;;;;3.70;76.58;97001.19;4852796;29;20030;-53
2021/12/05 15:47:18;;;;;;;14.70;5.85;;;;;;;3.78;77.28;97029.25;4854040;29;20037;-53
2021/12/05 15:50:20;;;;;;;13.05;5.75;;;;;;;3.82;77.32;97020.38;4852085;29;20098;-52
2021/12/05 15:52:50;;;;;;;11.05;4.45;;;;;;;3.64;77.24;97027.47;4850401;29;20097;-51
2021/12/05 15:55:30;;;;;;;14.55;5.47;;;;;;;3.67;77.36;97023.88;4853114;29;20033;-53
2021/12/05 15:58:19;;;;;;;14.02;6.85;;;;;;;3.77;77.33;97043.16;4853223;29;20058;-53
2021/12/05 16:00:47;;;;;;;12.35;4.53;;;;;;;3.76;77.57;97046.69;4852458;29;20117;-52
2021/12/05 16:03:16;;;;;;;11.35;4.25;;;;;;;3.72;77.62;97046.03;4852639;29;20541;-52
2021/12/05 16:05:43;;;;;;;14.80;6.95;;;;;;;3.68;77.89;97046.28;4853794;29;20101;-50
2021/12/05 16:08:09;;;;;;;14.68;6.53;;;;;;;3.61;77.85;97035.44;4867602;29;20026;-49
2021/12/05 16:10:37;;;;;;;14.35;6.20;;;;;;;3.83;76.85;97040.19;4853665;29;20058;-48
2021/12/05 16:13:30;;;;;;;11.32;4.57;;;;;;;3.89;76.96;97039.84;4855648;29;20022;-50
2021/12/05 16:16:05;;;;;;;12.52;4.30;;;;;;;3.77;77.95;97048.34;4853716;29;20383;-50
2021/12/05 16:18:32;;;;;;;10.27;4.78;;;;;;;3.83;77.42;97042.78;4852779;29;20030;-52
2021/12/05 16:21:05;;;;;;;12.95;5.07;;;;;;;3.73;77.47;97031.28;4852696;29;20026;-52
2021/12/05 16:23:34;;;;;;;16.27;6.45;;;;;;;3.63;78.70;97056.09;4852598;29;20030;-53
2021/12/05 16:26:10;;;;;;;13.68;5.28;;;;;;;3.52;78.43;97041.19;4867021;29;20181;-53
2021/12/05 16:28:39;;;;;;;14.50;5.88;;;;;;;3.62;78.55;97054.44;4871538;29;20040;-52
2021/12/05 16:31:12;;;;;;;19.70;5.30;;;;;;;3.61;78.47;97042.38;4872138;29;20022;-53
2021/12/05 16:33:38;;;;;;;13.43;6.18;;;;;;;3.62;78.29;97054.44;4864295;29;20026;-52
2021/12/05 16:36:04;;;;;;;16.48;6.90;;;;;;;3.44;78.83;97059.78;4852716;29;20048;-53
2021/12/05 16:38:40;;;;;;;19.38;6.40;;;;;;;3.49;78.87;97065.53;4866374;29;20040;-53
2021/12/05 16:41:11;;;;;;;16.95;6.18;;;;;;;3.66;78.77;97068.88;4871211;29;20142;-52
2021/12/05 16:44:05;;;;;;;13.70;5.28;;;;;;;3.48;78.58;97052.66;4870128;29;20025;-53
2021/12/05 16:46:36;;;;;;;24.85;9.48;;;;;;;3.54;78.64;97067.84;4850496;29;20029;-53
2021/12/05 16:49:04;;;;;;;21.77;6.73;;;;;;;3.76;78.02;97080.38;4859321;29;20021;-53
2021/12/05 16:51:50;;;;;;;17.85;7.80;;;;;;;3.62;78.94;97080.38;4871202;29;20029;-52
2021/12/05 16:54:24;;;;;;;16.70;7.80;;;;;;;3.50;78.67;97082.72;4868134;29;20109;-53
2021/12/05 16:57:10;;;;;;;25.63;11.35;;;;;;;3.58;78.71;97082.31;4851245;29;20048;-53
2021/12/05 16:59:40;;;;;;;23.63;10.63;;;;;;;3.56;78.72;97084.97;4851841;29;20665;-53
2021/12/05 17:02:27;;;;;;;16.50;7.80;;;;;;;3.48;78.42;97084.59;4852309;29;20033;-51
2021/12/05 17:05:04;;;;;;;16.63;7.15;;;;;;;3.55;78.53;97093.69;4852839;29;20098;-51
2021/12/05 17:07:40;;;;;;;13.57;6.70;;;;;;;3.46;79.03;97093.38;4867442;29;20029;-50
2021/12/05 17:10:28;;;;;;;18.65;6.75;;;;;;;3.24;79.40;97088.59;4860288;29;20093;-53
2021/12/05 17:13:31;;;;;;;13.15;6.82;;;;;;;3.39;79.68;97089.47;4852742;29;20038;-53
2021/12/05 17:16:02;;;;;;;14.18;5.90;;;;;;;3.25;79.48;97078.13;4853054;29;20048;-53
2021/12/05 17:18:44;;;;;;;13.57;5.95;;;;;;;3.29;78.75;97073.59;4858064;29;20041;-53
2021/12/05 17:21:21;;;;;;;13.77;5.90;;;;;;;3.32;78.55;97094.16;4870512;29;20109;-53
2021/12/05 17:23:57;;;;;;;15.05;6.88;;;;;;;2.98;80.19;97098.66;4855033;29;20037;-52
2021/12/05 17:26:32;;;;;;;16.30;6.72;;;;;;;3.01;80.03;97101.06;4852600;29;20041;-52
2021/12/05 17:29:19;;;;;;;24.60;9.32;;;;;;;3.00;80.15;97103.75;4866414;29;20629;-53
2021/12/05 17:31:52;;;;;;;19.08;9.35;;;;;;;2.81;81.17;97093.56;4870120;29;20105;-52
2021/12/05 17:34:18;;;;;;;20.30;9.13;;;;;;;3.01;80.67;97103.66;4869871;29;20029;-53
2021/12/05 17:36:45;;;;;;;22.55;9.80;;;;;;;3.03;80.72;97101.84;4863629;29;20030;-53
2021/12/05 17:39:11;;;;;;;26.23;11.18;;;;;;;2.98;81.13;97108.19;4851479;29;20033;-50
2021/12/05 17:41:36;;;;;;;19.30;9.93;;;;;;;2.98;80.81;97095.22;4852807;29;20033;-52
2021/12/05 17:44:03;;;;;;;26.92;12.70;;;;;;;2.93;80.66;97105.03;4852160;29;20033;-53
2021/12/05 17:46:30;;;;;;;32.10;14.45;;;;;;;2.80;80.81;97112.63;4851312;29;20089;-52
2021/12/05 17:48:55;;;;;;;31.00;16.55;;;;;;;2.82;81.02;97127.19;4854140;29;20154;-52
2021/12/05 17:51:25;;;;;;;33.92;18.35;;;;;;;2.56;81.32;97102.69;4856735;29;20030;-53
2021/12/05 17:53:54;;;;;;;33.05;18.67;;;;;;;2.66;81.23;97125.50;4857455;29;20037;-52
2021/12/05 17:56:34;;;;;;;39.38;19.85;;;;;;;2.63;81.73;97131.66;4857451;29;20026;-52
2021/12/05 17:59:12;;;;;;;56.25;30.85;;;;;;;2.53;81.78;97131.31;4860501;29;20044;-50
2021/12/05 18:04:22;;;;;;;49.95;28.05;;;;;;;2.55;82.39;97145.03;4875803;29;20108;-50
2021/12/05 18:06:47;;;;;;;69.57;31.63;;;;;;;2.32;82.50;97127.28;4864231;29;20034;-50
2021/12/05 18:09:12;;;;;;;43.85;20.58;;;;;;;2.38;82.42;97137.31;4858851;29;20033;-48
2021/12/05 18:11:38;;;;;;;46.22;19.30;;;;;;;2.37;82.13;97136.50;4858505;29;20030;-49
2021/12/05 18:14:03;;;;;;;32.25;15.70;;;;;;;2.25;82.68;97141.47;4857738;29;20050;-53
2021/12/05 18:16:31;;;;;;;25.30;12.05;;;;;;;2.22;83.39;97141.63;4857464;29;20033;-51
2021/12/05 18:19:07;;;;;;;23.42;11.50;;;;;;;2.25;82.54;97136.28;4857560;29;20033;-53
2021/12/05 18:21:36;;;;;;;25.00;13.38;;;;;;;2.31;82.75;97151.50;4858517;29;20033;-52
2021/12/05 18:24:06;;;;;;;34.45;16.17;;;;;;;2.27;82.39;97145.66;4856166;29;20048;-48
2021/12/05 18:26:31;;;;;;;78.25;30.40;;;;;;;2.19;82.32;97152.94;4857073;29;20018;-52
2021/12/05 18:28:57;;;;;;;81.13;33.05;;;;;;;2.12;82.30;97147.25;4866863;29;20529;-51
2021/12/05 18:31:25;;;;;;;165.45;60.03;;;;;;;2.08;82.67;97150.91;4863239;29;20493;-52
2021/12/05 18:33:54;;;;;;;222.13;74.13;;;;;;;2.18;82.24;97160.81;4839692;29;20479;-53
2021/12/05 18:36:20;;;;;;;111.90;48.88;;;;;;;2.08;82.18;97166.44;4856070;29;20053;-52
2021/12/05 18:38:47;;;;;;;67.13;33.72;;;;;;;1.77;83.25;97155.97;4857183;29;20530;-52
2021/12/05 18:41:13;;;;;;;68.53;37.53;;;;;;;1.79;83.83;97172.22;4857529;29;20026;-53
2021/12/05 18:43:39;;;;;;;48.40;29.75;;;;;;;1.56;83.31;97138.03;4861694;29;20030;-51
2021/12/05 18:46:06;;;;;;;90.55;44.95;;;;;;;1.80;82.70;97155.81;4857261;29;20022;-49
2021/12/05 18:48:32;;;;;;;52.55;29.00;;;;;;;1.65;83.26;97171.19;4855940;29;20033;-52
2021/12/05 18:50:58;;;;;;;42.65;21.77;;;;;;;1.77;83.28;97184.41;4856594;29;20049;-49
2021/12/05 18:53:23;;;;;;;30.70;14.90;;;;;;;1.84;82.97;97183.19;4856769;29;20097;-49
2021/12/05 18:55:49;;;;;;;25.88;13.40;;;;;;;1.80;83.01;97192.03;4858769;29;20112;-53
2021/12/05 18:58:15;;;;;;;27.85;13.10;;;;;;;1.85;82.76;97179.69;4857746;29;20029;-51
2021/12/05 19:06:20;;;;;;;45.00;26.63;;;;;;;1.96;81.98;97186.91;4854744;29;20061;-49
2021/12/05 19:11:39;;;;;;;28.38;13.90;;;;;;;1.80;82.19;97203.19;4845298;29;20033;-52
2021/12/05 19:14:31;;;;;;;25.52;13.02;;;;;;;1.57;83.65;97199.13;4856824;29;20058;-50
2021/12/05 19:17:00;;;;;;;23.92;13.48;;;;;;;1.60;83.30;97206.75;4848282;29;20034;-51
2021/12/05 19:19:26;;;;;;;28.50;12.90;;;;;;;1.47;83.54;97210.84;4855863;29;20086;-52
2021/12/05 19:21:51;;;;;;;24.48;13.30;;;;;;;1.28;84.48;97210.06;4855787;29;20042;-53
2021/12/05 19:24:17;;;;;;;25.10;12.80;;;;;;;1.19;83.15;97214.72;4855892;29;20018;-49
2021/12/05 19:26:42;;;;;;;55.72;30.38;;;;;;;0.79;84.90;97200.25;4868606;29;20036;-49
2021/12/05 19:29:08;;;;;;;43.97;26.00;;;;;;;0.80;84.60;97196.75;4873394;29;20098;-49
2021/12/05 19:31:34;;;;;;;39.83;22.02;;;;;;;0.83;84.30;97204.34;4872832;29;20058;-49
2021/12/05 19:33:59;;;;;;;46.63;24.92;;;;;;;0.78;84.20;97200.31;4866437;29;20022;-49
2021/12/05 19:36:27;;;;;;;36.15;20.15;;;;;;;0.81;83.58;97207.91;4861984;29;20033;-51
2021/12/05 19:38:53;;;;;;;32.05;19.55;;;;;;;0.88;83.75;97209.31;4860112;29;20040;-54
2021/12/05 19:41:19;;;;;;;37.28;20.83;;;;;;;0.94;83.59;97222.78;4846316;29;20045;-53
2021/12/05 19:43:44;;;;;;;40.03;20.77;;;;;;;1.13;82.58;97229.66;4853132;29;20022;-53
2021/12/05 19:46:12;;;;;;;37.92;21.85;;;;;;;0.81;83.18;97219.06;4854227;29;20027;-51
2021/12/05 19:48:39;;;;;;;48.92;24.25;;;;;;;0.95;82.66;97233.94;4859727;29;20051;-54
2021/12/05 19:51:07;;;;;;;48.30;27.45;;;;;;;0.86;83.24;97231.75;4837942;29;20080;-52
2021/12/05 19:53:34;;;;;;;47.80;25.27;;;;;;;0.84;83.87;97236.16;4848424;29;20037;-50
2021/12/05 19:56:00;;;;;;;45.85;24.35;;;;;;;0.55;84.61;97240.88;4855680;29;20037;-54
2021/12/05 19:58:25;;;;;;;43.72;25.15;;;;;;;0.64;85.03;97245.63;4856034;29;20044;-53
2021/12/05 20:00:51;;;;;;;49.92;29.33;;;;;;;0.46;85.49;97241.28;4855934;29;20034;-54
2021/12/05 20:03:16;;;;;;;48.85;26.33;;;;;;;0.47;84.67;97217.97;4858350;29;20058;-54
2021/12/05 20:05:41;;;;;;;46.50;24.38;;;;;;;0.56;84.85;97247.72;4853750;29;20033;-50
2021/12/05 20:49:30;;;;;;;412.73;150.15;;;;;;;-0.40;85.84;97255.16;4881203;24;20061;-50
2021/12/05 20:51:56;;;;;;;69.72;32.92;;;;;;;-0.27;84.83;97266.66;4870058;29;20413;-51
2021/12/05 20:54:22;;;;;;;42.83;19.63;;;;;;;-0.40;85.17;97250.00;4854931;29;20477;-51
2021/12/05 20:56:47;;;;;;;36.47;19.20;;;;;;;-0.43;84.86;97254.44;4871696;29;20036;-52
2021/12/05 20:59:12;;;;;;;43.30;20.85;;;;;;;-0.40;85.83;97256.91;4870169;29;20607;-51
2021/12/05 21:01:39;;;;;;;50.28;23.38;;;;;;;-0.42;85.70;97251.78;4870699;29;20121;-51
2021/12/05 21:04:05;;;;;;;64.75;29.38;;;;;;;-0.34;85.65;97260.06;4846089;29;20037;-53
2021/12/05 21:06:30;;;;;;;72.45;31.08;;;;;;;-0.45;85.66;97267.38;4849615;29;20049;-54
2021/12/05 21:08:57;;;;;;;56.00;25.83;;;;;;;-0.52;85.57;97265.94;4852160;29;20038;-53
2021/12/05 21:11:23;;;;;;;47.00;23.20;;;;;;;-0.49;85.63;97258.94;4851802;29;20029;-52
2021/12/05 21:13:48;;;;;;;57.13;25.27;;;;;;;-0.46;85.40;97260.56;4852027;29;20026;-54
2021/12/05 21:16:14;;;;;;;46.75;24.13;;;;;;;-0.53;85.57;97249.66;4853421;29;20032;-57
2021/12/05 21:18:43;;;;;;;112.20;36.35;;;;;;;-0.34;85.19;97270.38;4870790;29;20021;-53
2021/12/05 21:21:14;;;;;;;57.33;26.67;;;;;;;-0.28;83.95;97253.81;4870828;29;20116;-51
2021/12/05 21:23:39;;;;;;;48.47;24.20;;;;;;;-0.34;84.55;97260.06;4869591;29;20030;-52
2021/12/05 21:26:05;;;;;;;42.20;20.30;;;;;;;-0.19;83.14;97266.34;4871165;29;20033;-52
2021/12/05 21:28:31;;;;;;;39.17;20.38;;;;;;;-0.46;83.52;97239.94;4870878;29;20036;-51
2021/12/05 21:30:57;;;;;;;41.90;22.50;;;;;;;-0.33;84.63;97276.38;4869393;29;20102;-52
2021/12/05 21:33:22;;;;;;;352.52;137.30;;;;;;;-0.61;85.00;97271.47;4850591;29;20030;-50
2021/12/05 21:35:48;;;;;;;63.53;30.17;;;;;;;-0.17;84.65;97281.72;4850928;29;20033;-51
